createdAt,value
2018-01-20T00:00:58.396Z,0.00
2018-01-20T00:01:58.396Z,0.00
2018-01-20T00:02:58.396Z,0.00
2018-01-20T00:03:58.398Z,0.00
2018-01-20T00:04:58.400Z,0.00
2018-01-20T00:05:58.400Z,0.00
2018-01-20T00:06:58.402Z,0.00
2018-01-20T00:07:58.403Z,0.00
2018-01-20T00:08:58.403Z,0.00
2018-01-20T00:09:58.409Z,0.00
2018-01-20T00:10:58.407Z,0.00
2018-01-20T00:11:58.409Z,0.00
2018-01-20T00:12:58.409Z,0.00
2018-01-20T00:13:58.411Z,0.00
2018-01-20T00:14:58.419Z,0.00
2018-01-20T00:15:58.416Z,0.00
2018-01-20T00:16:58.415Z,0.00
2018-01-20T00:17:58.417Z,0.00
2018-01-20T00:18:58.419Z,0.00
2018-01-20T00:19:58.421Z,0.00
2018-01-20T00:20:58.420Z,0.00
2018-01-20T00:21:58.423Z,0.00
2018-01-20T00:22:58.425Z,0.00
2018-01-20T00:23:58.425Z,0.00
2018-01-20T00:24:58.426Z,0.00
2018-01-20T00:25:58.428Z,0.00
2018-01-20T00:26:58.436Z,0.00
2018-01-20T00:27:58.432Z,0.00
2018-01-20T00:28:58.433Z,0.00
2018-01-20T00:29:58.434Z,0.00
2018-01-20T00:30:58.436Z,0.00
2018-01-20T00:31:58.447Z,0.00
2018-01-20T00:32:58.439Z,0.00
2018-01-20T00:33:58.440Z,0.00
2018-01-20T00:34:58.443Z,0.00
2018-01-20T00:35:58.443Z,0.00
2018-01-20T00:36:58.447Z,0.00
2018-01-20T00:37:58.446Z,0.00
2018-01-20T00:38:58.447Z,0.00
2018-01-20T00:39:58.450Z,0.00
2018-01-20T00:40:58.453Z,0.00
2018-01-20T00:41:58.452Z,0.00
2018-01-20T00:42:58.454Z,0.00
2018-01-20T00:43:58.463Z,0.00
2018-01-20T00:44:58.456Z,0.00
2018-01-20T00:45:58.458Z,0.00
2018-01-20T00:46:58.460Z,0.00
2018-01-20T00:47:58.461Z,0.00
2018-01-20T00:48:58.469Z,0.00
2018-01-20T00:49:58.464Z,0.00
2018-01-20T00:50:58.466Z,0.00
2018-01-20T00:51:58.468Z,0.00
2018-01-20T00:52:58.469Z,0.00
2018-01-20T00:53:58.469Z,0.00
2018-01-20T00:54:58.472Z,0.00
2018-01-20T00:55:58.472Z,0.00
2018-01-20T00:56:58.478Z,0.00
2018-01-20T00:57:58.498Z,0.00
2018-01-20T00:58:58.476Z,0.00
2018-01-20T00:59:58.480Z,0.00
2018-01-20T01:00:58.478Z,0.00
2018-01-20T01:01:58.479Z,0.00
2018-01-20T01:02:58.482Z,0.00
2018-01-20T01:03:58.485Z,0.00
2018-01-20T01:04:58.483Z,0.00
2018-01-20T01:05:58.486Z,0.00
2018-01-20T01:06:58.487Z,0.00
2018-01-20T01:07:58.495Z,0.00
2018-01-20T01:08:58.488Z,0.00
2018-01-20T01:09:58.490Z,0.00
2018-01-20T01:10:58.491Z,0.00
2018-01-20T01:11:58.491Z,0.00
2018-01-20T01:12:58.496Z,0.00
2018-01-20T01:13:58.494Z,0.00
2018-01-20T01:14:58.495Z,0.00
2018-01-20T01:15:58.496Z,0.00
2018-01-20T01:16:58.498Z,0.00
2018-01-20T01:17:58.498Z,0.00
2018-01-20T01:18:58.499Z,0.00
2018-01-20T01:19:58.500Z,0.00
2018-01-20T01:20:58.503Z,0.00
2018-01-20T01:21:58.502Z,0.00
2018-01-20T01:22:58.502Z,0.00
2018-01-20T01:23:58.504Z,0.00
2018-01-20T01:24:58.503Z,0.00
2018-01-20T01:25:58.506Z,0.00
2018-01-20T01:26:58.507Z,0.00
2018-01-20T01:27:58.508Z,0.00
2018-01-20T01:28:58.507Z,0.00
2018-01-20T01:29:58.510Z,0.00
2018-01-20T01:30:58.510Z,0.00
2018-01-20T01:31:58.514Z,0.00
2018-01-20T01:32:58.511Z,0.00
2018-01-20T01:33:58.513Z,0.00
2018-01-20T01:34:58.513Z,0.00
2018-01-20T01:35:58.515Z,0.00
2018-01-20T01:36:58.515Z,0.00
2018-01-20T01:37:58.519Z,0.00
2018-01-20T01:38:58.516Z,0.00
2018-01-20T01:39:58.517Z,0.00
2018-01-20T01:40:58.521Z,0.00
2018-01-20T01:41:58.519Z,0.00
2018-01-20T01:42:58.519Z,0.00
2018-01-20T01:43:58.520Z,0.00
2018-01-20T01:44:58.521Z,0.00
2018-01-20T01:45:58.521Z,0.00
2018-01-20T01:46:58.521Z,0.00
2018-01-20T01:47:58.523Z,0.00
2018-01-20T01:48:58.524Z,0.00
2018-01-20T01:49:58.523Z,0.00
2018-01-20T01:50:58.524Z,0.00
2018-01-20T01:51:58.526Z,0.00
2018-01-20T01:52:58.525Z,0.00
2018-01-20T01:53:58.526Z,0.00
2018-01-20T01:54:58.526Z,0.00
2018-01-20T01:55:58.529Z,0.00
2018-01-20T01:56:58.529Z,0.00
2018-01-20T01:57:58.527Z,0.00
2018-01-20T01:58:58.528Z,0.00
2018-01-20T01:59:58.530Z,0.00
2018-01-20T02:00:58.533Z,0.00
2018-01-20T02:01:58.532Z,0.00
2018-01-20T02:02:58.531Z,0.00
2018-01-20T02:03:58.532Z,0.00
2018-01-20T02:04:58.534Z,0.00
2018-01-20T02:05:58.533Z,0.00
2018-01-20T02:06:58.533Z,0.00
2018-01-20T02:07:58.535Z,0.00
2018-01-20T02:08:58.534Z,0.00
2018-01-20T02:09:58.535Z,0.00
2018-01-20T02:10:58.539Z,0.00
2018-01-20T02:11:58.537Z,0.00
2018-01-20T02:12:58.537Z,0.00
2018-01-20T02:13:58.539Z,0.00
2018-01-20T02:14:58.538Z,0.00
2018-01-20T02:15:58.539Z,0.00
2018-01-20T02:16:58.539Z,0.00
2018-01-20T02:17:58.542Z,0.00
2018-01-20T02:18:58.544Z,0.00
2018-01-20T02:19:58.542Z,0.00
2018-01-20T02:20:58.541Z,0.00
2018-01-20T02:21:58.542Z,0.00
2018-01-20T02:22:58.543Z,0.00
2018-01-20T02:23:58.548Z,0.00
2018-01-20T02:24:58.546Z,0.00
2018-01-20T02:25:58.544Z,0.00
2018-01-20T02:26:58.545Z,0.00
2018-01-20T02:27:58.545Z,0.00
2018-01-20T02:28:58.545Z,0.00
2018-01-20T02:29:58.547Z,0.00
2018-01-20T02:30:58.548Z,0.00
2018-01-20T02:31:58.549Z,0.00
2018-01-20T02:32:58.549Z,0.00
2018-01-20T02:33:58.550Z,0.00
2018-01-20T02:34:58.550Z,0.00
2018-01-20T02:35:58.553Z,0.00
2018-01-20T02:36:58.553Z,0.00
2018-01-20T02:37:58.553Z,0.00
2018-01-20T02:38:58.554Z,0.00
2018-01-20T02:39:58.554Z,0.00
2018-01-20T02:40:58.554Z,0.00
2018-01-20T02:41:58.558Z,0.00
2018-01-20T02:42:58.555Z,0.00
2018-01-20T02:43:58.557Z,0.00
2018-01-20T02:44:58.556Z,0.00
2018-01-20T02:45:58.558Z,0.00
2018-01-20T02:46:58.558Z,0.00
2018-01-20T02:47:58.559Z,0.00
2018-01-20T02:48:58.559Z,0.00
2018-01-20T02:49:58.559Z,0.00
2018-01-20T02:50:58.562Z,0.00
2018-01-20T02:51:58.562Z,0.00
2018-01-20T02:52:58.595Z,0.00
2018-01-20T02:53:58.561Z,0.00
2018-01-20T02:54:58.563Z,0.00
2018-01-20T02:55:58.564Z,0.00
2018-01-20T02:56:58.563Z,0.00
2018-01-20T02:57:58.564Z,0.00
2018-01-20T02:58:58.568Z,0.00
2018-01-20T02:59:58.565Z,0.00
2018-01-20T03:00:58.565Z,0.00
2018-01-20T03:01:58.568Z,0.00
2018-01-20T03:02:58.567Z,0.00
2018-01-20T03:03:58.569Z,0.00
2018-01-20T03:04:58.569Z,0.00
2018-01-20T03:05:58.569Z,0.00
2018-01-20T03:06:58.571Z,0.00
2018-01-20T03:07:58.571Z,0.00
2018-01-20T03:08:58.574Z,0.00
2018-01-20T03:09:58.572Z,0.00
2018-01-20T03:10:58.574Z,0.00
2018-01-20T03:11:58.575Z,0.00
2018-01-20T03:12:58.574Z,0.00
2018-01-20T03:13:58.578Z,0.00
2018-01-20T03:14:58.577Z,0.00
2018-01-20T03:15:58.579Z,0.00
2018-01-20T03:16:58.578Z,0.00
2018-01-20T03:17:58.580Z,0.00
2018-01-20T03:18:58.580Z,0.00
2018-01-20T03:19:58.582Z,0.00
2018-01-20T03:20:58.581Z,0.00
2018-01-20T03:21:58.582Z,0.00
2018-01-20T03:22:58.582Z,0.00
2018-01-20T03:23:58.584Z,0.00
2018-01-20T03:24:58.584Z,0.00
2018-01-20T03:25:58.587Z,0.00
2018-01-20T03:26:58.588Z,0.00
2018-01-20T03:27:58.586Z,0.00
2018-01-20T03:28:58.586Z,0.00
2018-01-20T03:29:58.586Z,0.00
2018-01-20T03:30:58.591Z,0.00
2018-01-20T03:31:58.588Z,0.00
2018-01-20T03:32:58.588Z,0.00
2018-01-20T03:33:58.589Z,0.00
2018-01-20T03:34:58.589Z,0.00
2018-01-20T03:35:58.590Z,0.00
2018-01-20T03:36:58.590Z,0.00
2018-01-20T03:37:58.589Z,0.00
2018-01-20T03:38:58.600Z,0.00
2018-01-20T03:39:58.591Z,0.00
2018-01-20T03:40:58.590Z,0.00
2018-01-20T03:41:58.591Z,0.00
2018-01-20T03:42:58.593Z,0.00
2018-01-20T03:43:58.592Z,0.00
2018-01-20T03:44:58.593Z,0.00
2018-01-20T03:45:58.596Z,0.00
2018-01-20T03:46:58.593Z,0.00
2018-01-20T03:47:58.595Z,0.00
2018-01-20T03:48:58.593Z,0.00
2018-01-20T03:49:58.595Z,0.00
2018-01-20T03:50:58.595Z,0.00
2018-01-20T03:51:58.596Z,0.00
2018-01-20T03:52:58.595Z,0.00
2018-01-20T03:53:58.596Z,0.00
2018-01-20T03:54:58.599Z,0.00
2018-01-20T03:55:58.595Z,0.00
2018-01-20T03:56:58.597Z,0.00
2018-01-20T03:57:58.598Z,0.00
2018-01-20T03:58:58.598Z,0.00
2018-01-20T03:59:58.598Z,0.00
2018-01-20T04:00:58.597Z,0.00
2018-01-20T04:01:58.598Z,0.00
2018-01-20T04:02:58.596Z,0.00
2018-01-20T04:03:58.599Z,0.00
2018-01-20T04:04:58.598Z,0.00
2018-01-20T04:05:58.600Z,0.00
2018-01-20T04:06:58.599Z,0.00
2018-01-20T04:07:58.600Z,0.00
2018-01-20T04:08:58.601Z,0.00
2018-01-20T04:09:58.599Z,0.00
2018-01-20T04:10:58.600Z,0.00
2018-01-20T04:11:58.602Z,0.00
2018-01-20T04:12:58.602Z,0.00
2018-01-20T04:13:58.604Z,0.00
2018-01-20T04:14:58.603Z,0.00
2018-01-20T04:15:58.603Z,0.00
2018-01-20T04:16:58.603Z,0.00
2018-01-20T04:17:58.604Z,0.00
2018-01-20T04:18:58.609Z,0.00
2018-01-20T04:19:58.607Z,0.00
2018-01-20T04:20:58.604Z,0.00
2018-01-20T04:21:58.606Z,0.00
2018-01-20T04:22:58.607Z,0.00
2018-01-20T04:23:58.607Z,0.00
2018-01-20T04:24:58.606Z,0.00
2018-01-20T04:25:58.607Z,0.00
2018-01-20T04:26:58.607Z,0.00
2018-01-20T04:27:58.608Z,0.00
2018-01-20T04:28:58.607Z,0.00
2018-01-20T04:29:58.609Z,0.00
2018-01-20T04:30:58.610Z,0.00
2018-01-20T04:31:58.610Z,0.00
2018-01-20T04:32:58.612Z,0.00
2018-01-20T04:33:58.613Z,0.00
2018-01-20T04:34:58.612Z,0.00
2018-01-20T04:35:58.613Z,0.00
2018-01-20T04:36:58.611Z,0.00
2018-01-20T04:37:58.613Z,0.00
2018-01-20T04:38:58.613Z,0.00
2018-01-20T04:39:58.615Z,0.00
2018-01-20T04:40:58.615Z,0.00
2018-01-20T04:41:58.616Z,0.00
2018-01-20T04:42:58.616Z,0.00
2018-01-20T04:43:58.618Z,0.00
2018-01-20T04:44:58.616Z,0.00
2018-01-20T04:45:58.621Z,0.00
2018-01-20T04:46:58.618Z,0.00
2018-01-20T04:47:58.622Z,0.00
2018-01-20T04:48:58.619Z,0.00
2018-01-20T04:49:58.619Z,0.00
2018-01-20T04:50:58.620Z,0.00
2018-01-20T04:51:58.626Z,0.00
2018-01-20T04:52:58.620Z,0.00
2018-01-20T04:53:58.621Z,0.00
2018-01-20T04:54:58.624Z,0.00
2018-01-20T04:55:58.623Z,0.00
2018-01-20T04:56:58.621Z,0.00
2018-01-20T04:57:58.622Z,0.00
2018-01-20T04:58:58.626Z,0.00
2018-01-20T04:59:58.623Z,0.00
2018-01-20T05:00:58.623Z,0.00
2018-01-20T05:01:58.625Z,0.00
2018-01-20T05:02:58.627Z,0.00
2018-01-20T05:03:58.626Z,0.00
2018-01-20T05:04:58.627Z,0.00
2018-01-20T05:05:58.627Z,0.00
2018-01-20T05:06:58.628Z,0.00
2018-01-20T05:07:58.628Z,0.00
2018-01-20T05:08:58.629Z,0.00
2018-01-20T05:09:58.629Z,0.00
2018-01-20T05:10:58.629Z,0.00
2018-01-20T05:11:58.630Z,0.00
2018-01-20T05:12:58.632Z,0.00
2018-01-20T05:13:58.630Z,0.00
2018-01-20T05:14:58.631Z,0.00
2018-01-20T05:15:58.633Z,0.00
2018-01-20T05:16:58.633Z,0.00
2018-01-20T05:17:58.635Z,0.00
2018-01-20T05:18:58.635Z,0.00
2018-01-20T05:19:58.636Z,0.00
2018-01-20T05:20:58.635Z,0.00
2018-01-20T05:21:58.638Z,0.00
2018-01-20T05:22:58.640Z,0.00
2018-01-20T05:23:58.640Z,0.00
2018-01-20T05:24:58.637Z,0.00
2018-01-20T05:25:58.644Z,0.00
2018-01-20T05:26:58.642Z,0.00
2018-01-20T05:27:58.643Z,0.00
2018-01-20T05:28:58.645Z,0.00
2018-01-20T05:29:58.645Z,0.00
2018-01-20T05:30:58.645Z,0.00
2018-01-20T05:31:58.646Z,0.00
2018-01-20T05:32:58.647Z,0.00
2018-01-20T05:33:58.647Z,0.00
2018-01-20T05:34:58.650Z,0.00
2018-01-20T05:35:58.651Z,0.00
2018-01-20T05:36:58.653Z,0.00
2018-01-20T05:37:58.653Z,0.00
2018-01-20T05:38:58.656Z,0.00
2018-01-20T05:39:58.654Z,0.00
2018-01-20T05:40:58.658Z,0.00
2018-01-20T05:41:58.657Z,0.00
2018-01-20T05:42:58.661Z,0.00
2018-01-20T05:43:58.657Z,0.00
2018-01-20T05:44:58.661Z,0.00
2018-01-20T05:45:58.659Z,0.00
2018-01-20T05:46:58.660Z,0.00
2018-01-20T05:47:58.660Z,0.00
2018-01-20T05:48:58.661Z,0.00
2018-01-20T05:49:58.662Z,0.00
2018-01-20T05:50:58.667Z,0.00
2018-01-20T05:51:58.663Z,0.00
2018-01-20T05:52:58.664Z,0.00
2018-01-20T05:53:58.664Z,0.00
2018-01-20T05:54:58.667Z,0.00
2018-01-20T05:55:58.667Z,0.00
2018-01-20T05:56:58.668Z,0.00
2018-01-20T05:57:58.672Z,0.00
2018-01-20T05:58:58.670Z,0.00
2018-01-20T05:59:58.670Z,0.00
2018-01-20T06:00:58.670Z,0.00
2018-01-20T06:01:58.671Z,0.00
2018-01-20T06:02:58.672Z,0.00
2018-01-20T06:03:58.674Z,0.00
2018-01-20T06:04:58.673Z,0.00
2018-01-20T06:05:58.676Z,0.00
2018-01-20T06:06:58.676Z,0.00
2018-01-20T06:07:58.678Z,0.00
2018-01-20T06:08:58.677Z,0.00
2018-01-20T06:09:58.680Z,0.00
2018-01-20T06:10:58.679Z,0.00
2018-01-20T06:11:58.679Z,0.00
2018-01-20T06:12:58.680Z,0.00
2018-01-20T06:13:58.679Z,0.00
2018-01-20T06:14:58.684Z,0.00
2018-01-20T06:15:58.683Z,0.00
2018-01-20T06:16:58.681Z,0.00
2018-01-20T06:17:58.684Z,0.00
2018-01-20T06:18:58.684Z,0.00
2018-01-20T06:19:58.684Z,0.00
2018-01-20T06:20:58.684Z,0.00
2018-01-20T06:21:58.691Z,0.00
2018-01-20T06:22:58.686Z,0.00
2018-01-20T06:23:58.688Z,0.00
2018-01-20T06:24:58.686Z,0.00
2018-01-20T06:25:58.689Z,0.00
2018-01-20T06:26:58.688Z,0.00
2018-01-20T06:27:58.689Z,0.00
2018-01-20T06:28:58.689Z,0.00
2018-01-20T06:29:58.689Z,0.00
2018-01-20T06:30:58.691Z,0.00
2018-01-20T06:31:58.690Z,0.00
2018-01-20T06:32:58.691Z,0.00
2018-01-20T06:33:58.693Z,0.00
2018-01-20T06:34:58.691Z,0.00
2018-01-20T06:35:58.693Z,0.00
2018-01-20T06:36:58.693Z,0.00
2018-01-20T06:37:58.693Z,0.00
2018-01-20T06:38:58.693Z,0.00
2018-01-20T06:39:58.696Z,0.00
2018-01-20T06:40:58.694Z,0.00
2018-01-20T06:41:58.697Z,0.00
2018-01-20T06:42:58.697Z,0.00
2018-01-20T06:43:58.698Z,0.00
2018-01-20T06:44:58.698Z,0.00
2018-01-20T06:45:58.697Z,4.00
2018-01-20T06:46:58.700Z,0.00
2018-01-20T06:47:58.704Z,0.00
2018-01-20T06:48:58.699Z,4.00
2018-01-20T06:49:58.703Z,0.00
2018-01-20T06:50:58.702Z,4.00
2018-01-20T06:51:58.702Z,0.00
2018-01-20T06:52:58.706Z,4.00
2018-01-20T06:53:58.701Z,0.00
2018-01-20T06:54:58.704Z,4.00
2018-01-20T06:55:58.704Z,4.00
2018-01-20T06:56:58.704Z,4.00
2018-01-20T06:57:58.704Z,4.00
2018-01-20T06:58:58.705Z,4.00
2018-01-20T06:59:58.707Z,4.00
2018-01-20T07:00:58.706Z,8.00
2018-01-20T07:01:58.704Z,8.00
2018-01-20T07:02:58.706Z,8.00
2018-01-20T07:03:58.710Z,12.00
2018-01-20T07:04:58.706Z,8.00
2018-01-20T07:05:58.709Z,12.00
2018-01-20T07:06:58.709Z,12.00
2018-01-20T07:07:58.710Z,12.00
2018-01-20T07:08:58.708Z,16.00
2018-01-20T07:09:58.716Z,20.00
2018-01-20T07:10:58.712Z,20.00
2018-01-20T07:11:58.712Z,24.00
2018-01-20T07:12:58.713Z,24.00
2018-01-20T07:13:58.712Z,28.00
2018-01-20T07:14:58.717Z,32.00
2018-01-20T07:15:58.713Z,32.00
2018-01-20T07:16:58.715Z,36.00
2018-01-20T07:17:58.715Z,36.00
2018-01-20T07:18:58.717Z,40.00
2018-01-20T07:19:58.717Z,40.00
2018-01-20T07:20:58.716Z,44.00
2018-01-20T07:21:58.719Z,44.00
2018-01-20T07:22:58.719Z,48.00
2018-01-20T07:23:58.722Z,52.00
2018-01-20T07:24:58.720Z,52.00
2018-01-20T07:25:58.722Z,56.00
2018-01-20T07:26:58.726Z,64.00
2018-01-20T07:27:58.723Z,68.00
2018-01-20T07:28:58.722Z,72.00
2018-01-20T07:29:58.725Z,72.00
2018-01-20T07:30:58.726Z,76.00
2018-01-20T07:31:58.727Z,80.00
2018-01-20T07:32:58.728Z,84.00
2018-01-20T07:33:58.731Z,92.00
2018-01-20T07:34:58.730Z,92.00
2018-01-20T07:35:58.731Z,96.00
2018-01-20T07:36:58.732Z,100.00
2018-01-20T07:37:58.770Z,108.00
2018-01-20T07:38:58.734Z,112.00
2018-01-20T07:39:58.734Z,112.00
2018-01-20T07:40:58.735Z,116.00
2018-01-20T07:41:58.736Z,124.00
2018-01-20T07:42:58.737Z,128.00
2018-01-20T07:43:58.765Z,132.00
2018-01-20T07:44:58.738Z,132.00
2018-01-20T07:45:58.743Z,124.00
2018-01-20T07:46:58.740Z,124.00
2018-01-20T07:47:58.744Z,128.00
2018-01-20T07:48:58.746Z,132.00
2018-01-20T07:49:58.747Z,140.00
2018-01-20T07:50:58.744Z,148.00
2018-01-20T07:51:58.751Z,156.00
2018-01-20T07:52:58.749Z,164.00
2018-01-20T07:53:58.752Z,172.00
2018-01-20T07:54:58.752Z,180.00
2018-01-20T07:55:58.753Z,184.00
2018-01-20T07:56:58.754Z,192.00
2018-01-20T07:57:58.757Z,200.00
2018-01-20T07:58:58.756Z,224.00
2018-01-20T07:59:58.759Z,240.00
2018-01-20T08:00:58.759Z,240.00
2018-01-20T08:01:58.762Z,240.00
2018-01-20T08:02:58.764Z,232.00
2018-01-20T08:03:58.765Z,232.00
2018-01-20T08:04:58.764Z,240.00
2018-01-20T08:05:58.767Z,252.00
2018-01-20T08:06:58.769Z,260.00
2018-01-20T08:07:58.774Z,268.00
2018-01-20T08:08:58.770Z,272.00
2018-01-20T08:09:58.773Z,276.00
2018-01-20T08:10:58.785Z,276.00
2018-01-20T08:11:58.778Z,276.00
2018-01-20T08:12:58.780Z,276.00
2018-01-20T08:13:58.779Z,284.00
2018-01-20T08:14:58.782Z,292.00
2018-01-20T08:15:58.785Z,296.00
2018-01-20T08:16:58.785Z,296.00
2018-01-20T08:17:58.788Z,304.00
2018-01-20T08:18:58.787Z,312.00
2018-01-20T08:19:58.790Z,324.00
2018-01-20T08:20:58.793Z,328.00
2018-01-20T08:21:58.792Z,332.00
2018-01-20T08:22:58.837Z,340.00
2018-01-20T08:23:58.796Z,344.00
2018-01-20T08:24:58.804Z,364.00
2018-01-20T08:25:58.800Z,388.00
2018-01-20T08:26:58.802Z,404.00
2018-01-20T08:27:58.804Z,416.00
2018-01-20T08:28:58.805Z,420.00
2018-01-20T08:29:58.808Z,420.00
2018-01-20T08:30:58.820Z,436.00
2018-01-20T08:31:58.811Z,448.00
2018-01-20T08:32:58.812Z,456.00
2018-01-20T08:33:58.816Z,460.00
2018-01-20T08:34:58.818Z,460.00
2018-01-20T08:35:58.818Z,452.00
2018-01-20T08:36:58.824Z,448.00
2018-01-20T08:37:58.824Z,444.00
2018-01-20T08:38:58.828Z,444.00
2018-01-20T08:39:58.827Z,448.00
2018-01-20T08:40:58.827Z,468.00
2018-01-20T08:41:58.828Z,484.00
2018-01-20T08:42:58.829Z,508.00
2018-01-20T08:43:58.832Z,524.00
2018-01-20T08:44:58.832Z,540.00
2018-01-20T08:45:58.834Z,548.00
2018-01-20T08:46:58.838Z,544.00
2018-01-20T08:47:58.837Z,536.00
2018-01-20T08:48:58.843Z,536.00
2018-01-20T08:49:58.842Z,536.00
2018-01-20T08:50:58.843Z,544.00
2018-01-20T08:51:58.843Z,548.00
2018-01-20T08:52:58.844Z,560.00
2018-01-20T08:53:58.849Z,568.00
2018-01-20T08:54:58.850Z,580.00
2018-01-20T08:55:58.848Z,584.00
2018-01-20T08:56:58.850Z,592.00
2018-01-20T08:57:58.854Z,592.00
2018-01-20T08:58:58.854Z,592.00
2018-01-20T08:59:58.857Z,596.00
2018-01-20T09:00:58.862Z,604.00
2018-01-20T09:01:58.859Z,608.00
2018-01-20T09:02:58.860Z,612.00
2018-01-20T09:03:58.879Z,612.00
2018-01-20T09:04:58.882Z,628.00
2018-01-20T09:05:58.872Z,660.00
2018-01-20T09:06:58.878Z,696.00
2018-01-20T09:07:58.870Z,720.00
2018-01-20T09:08:58.879Z,720.00
2018-01-20T09:09:58.874Z,700.00
2018-01-20T09:10:58.887Z,672.00
2018-01-20T09:11:58.882Z,656.00
2018-01-20T09:12:59.889Z,664.00
2018-01-20T09:13:58.885Z,692.00
2018-01-20T09:14:58.888Z,732.00
2018-01-20T09:15:58.887Z,760.00
2018-01-20T09:16:58.887Z,756.00
2018-01-20T09:17:58.890Z,728.00
2018-01-20T09:18:58.892Z,696.00
2018-01-20T09:19:58.896Z,688.00
2018-01-20T09:20:58.895Z,692.00
2018-01-20T09:21:58.902Z,692.00
2018-01-20T09:22:58.903Z,696.00
2018-01-20T09:23:58.902Z,716.00
2018-01-20T09:24:58.915Z,752.00
2018-01-20T09:25:58.906Z,788.00
2018-01-20T09:26:58.916Z,816.00
2018-01-20T09:27:58.920Z,832.00
2018-01-20T09:28:58.929Z,836.00
2018-01-20T09:29:58.925Z,848.00
2018-01-20T09:30:58.928Z,876.00
2018-01-20T09:31:58.926Z,900.00
2018-01-20T09:32:58.929Z,892.00
2018-01-20T09:33:59.924Z,872.00
2018-01-20T09:34:58.937Z,868.00
2018-01-20T09:35:58.940Z,884.00
2018-01-20T09:37:01.938Z,896.00
2018-01-20T09:37:58.941Z,904.00
2018-01-20T09:38:58.945Z,912.00
2018-01-20T09:39:58.948Z,920.00
2018-01-20T09:40:58.949Z,936.00
2018-01-20T09:41:59.947Z,956.00
2018-01-20T09:42:58.970Z,968.00
2018-01-20T09:43:58.962Z,976.00
2018-01-20T09:44:58.960Z,972.00
2018-01-20T09:45:58.965Z,976.00
2018-01-20T09:46:58.965Z,996.00
2018-01-20T09:47:59.972Z,992.00
2018-01-20T09:48:59.969Z,960.00
2018-01-20T09:49:58.973Z,896.00
2018-01-20T09:50:58.978Z,852.00
2018-01-20T09:51:58.980Z,852.00
2018-01-20T09:52:59.981Z,888.00
2018-01-20T09:53:58.994Z,936.00
2018-01-20T09:54:58.997Z,996.00
2018-01-20T09:55:59.007Z,1044.00
2018-01-20T09:56:59.987Z,1080.00
2018-01-20T09:57:58.995Z,1132.00
2018-01-20T09:58:59.005Z,1192.00
2018-01-20T09:59:59.015Z,1212.00
2018-01-20T10:00:59.004Z,1216.00
2018-01-20T10:01:59.006Z,1192.00
2018-01-20T10:02:59.009Z,1192.00
2018-01-20T10:03:59.019Z,1216.00
2018-01-20T10:05:00.032Z,1220.00
2018-01-20T10:05:59.018Z,1200.00
2018-01-20T10:06:59.029Z,1200.00
2018-01-20T10:07:59.026Z,1164.00
2018-01-20T10:08:59.040Z,1132.00
2018-01-20T10:09:59.034Z,1144.00
2018-01-20T10:10:59.040Z,1152.00
2018-01-20T10:12:00.041Z,1136.00
2018-01-20T10:12:59.049Z,1124.00
2018-01-20T10:13:59.053Z,1120.00
2018-01-20T10:14:59.053Z,1132.00
2018-01-20T10:15:59.057Z,1132.00
2018-01-20T10:16:59.074Z,1136.00
2018-01-20T10:17:59.059Z,1136.00
2018-01-20T10:18:59.065Z,1140.00
2018-01-20T10:19:59.066Z,1132.00
2018-01-20T10:20:59.071Z,1116.00
2018-01-20T10:21:59.084Z,1092.00
2018-01-20T10:22:59.083Z,1088.00
2018-01-20T10:23:59.085Z,1092.00
2018-01-20T10:24:59.099Z,1076.00
2018-01-20T10:25:59.094Z,1060.00
2018-01-20T10:26:59.095Z,1040.00
2018-01-20T10:27:59.100Z,1028.00
2018-01-20T10:28:59.098Z,1024.00
2018-01-20T10:30:02.111Z,1036.00
2018-01-20T10:30:59.113Z,1024.00
2018-01-20T10:31:59.122Z,992.00
2018-01-20T10:32:59.114Z,968.00
2018-01-20T10:33:59.117Z,956.00
2018-01-20T10:34:59.123Z,928.00
2018-01-20T10:35:59.135Z,888.00
2018-01-20T10:37:00.132Z,848.00
2018-01-20T10:38:00.133Z,836.00
2018-01-20T10:38:59.148Z,820.00
2018-01-20T10:39:59.140Z,804.00
2018-01-20T10:41:00.175Z,792.00
2018-01-20T10:41:59.157Z,784.00
2018-01-20T10:42:59.156Z,780.00
2018-01-20T10:44:00.172Z,780.00
2018-01-20T10:44:59.163Z,784.00
2018-01-20T10:45:59.168Z,784.00
2018-01-20T10:46:59.181Z,796.00
2018-01-20T10:47:59.187Z,804.00
2018-01-20T10:49:00.175Z,820.00
2018-01-20T10:49:59.198Z,836.00
2018-01-20T10:50:59.184Z,844.00
2018-01-20T10:51:59.198Z,840.00
2018-01-20T10:53:00.191Z,832.00
2018-01-20T10:53:59.200Z,812.00
2018-01-20T10:54:59.201Z,792.00
2018-01-20T10:55:59.216Z,776.00
2018-01-20T10:56:59.207Z,772.00
2018-01-20T10:57:59.219Z,768.00
2018-01-20T10:58:59.216Z,756.00
2018-01-20T10:59:59.230Z,752.00
2018-01-20T11:00:59.228Z,744.00
2018-01-20T11:01:59.226Z,744.00
2018-01-20T11:02:59.230Z,748.00
2018-01-20T11:03:59.235Z,752.00
2018-01-20T11:04:59.236Z,760.00
2018-01-20T11:05:59.243Z,776.00
2018-01-20T11:07:01.239Z,776.00
2018-01-20T11:07:59.251Z,776.00
2018-01-20T11:08:59.255Z,776.00
2018-01-20T11:09:59.259Z,796.00
2018-01-20T11:10:59.261Z,804.00
2018-01-20T11:12:00.263Z,808.00
2018-01-20T11:12:59.270Z,808.00
2018-01-20T11:13:59.272Z,828.00
2018-01-20T11:15:00.276Z,852.00
2018-01-20T11:15:59.280Z,868.00
2018-01-20T11:16:59.289Z,876.00
2018-01-20T11:17:59.290Z,880.00
2018-01-20T11:18:59.297Z,884.00
2018-01-20T11:19:59.297Z,868.00
2018-01-20T11:20:59.317Z,864.00
2018-01-20T11:22:01.293Z,880.00
2018-01-20T11:22:59.328Z,872.00
2018-01-20T11:23:59.311Z,852.00
2018-01-20T11:24:59.314Z,848.00
2018-01-20T11:25:59.332Z,848.00
2018-01-20T11:27:00.326Z,828.00
2018-01-20T11:27:59.333Z,800.00
2018-01-20T11:28:59.330Z,768.00
2018-01-20T11:29:59.339Z,740.00
2018-01-20T11:31:00.344Z,736.00
2018-01-20T11:31:59.365Z,732.00
2018-01-20T11:32:59.346Z,732.00
2018-01-20T11:34:00.355Z,728.00
2018-01-20T11:34:59.362Z,736.00
2018-01-20T11:36:00.366Z,756.00
2018-01-20T11:36:59.376Z,768.00
2018-01-20T11:37:59.373Z,764.00
2018-01-20T11:38:59.373Z,764.00
2018-01-20T11:39:59.391Z,768.00
2018-01-20T11:40:59.380Z,772.00
2018-01-20T11:41:59.384Z,776.00
2018-01-20T11:42:59.388Z,796.00
2018-01-20T11:43:59.387Z,808.00
2018-01-20T11:44:59.398Z,796.00
2018-01-20T11:45:59.403Z,780.00
2018-01-20T11:47:00.402Z,780.00
2018-01-20T11:47:59.409Z,796.00
2018-01-20T11:48:59.413Z,800.00
2018-01-20T11:49:59.415Z,792.00
2018-01-20T11:50:59.431Z,796.00
2018-01-20T11:51:59.439Z,804.00
2018-01-20T11:53:00.428Z,808.00
2018-01-20T11:53:59.492Z,824.00
2018-01-20T11:54:59.447Z,840.00
2018-01-20T11:55:59.465Z,848.00
2018-01-20T11:56:59.454Z,852.00
2018-01-20T11:57:59.446Z,840.00
2018-01-20T11:58:59.452Z,820.00
2018-01-20T11:59:59.463Z,796.00
2018-01-20T12:01:00.463Z,784.00
2018-01-20T12:01:59.461Z,780.00
2018-01-20T12:02:59.468Z,800.00
2018-01-20T12:03:59.473Z,808.00
2018-01-20T12:04:59.473Z,812.00
2018-01-20T12:05:59.483Z,816.00
2018-01-20T12:06:59.483Z,832.00
2018-01-20T12:08:00.492Z,828.00
2018-01-20T12:08:59.513Z,796.00
2018-01-20T12:09:59.492Z,764.00
2018-01-20T12:10:59.519Z,756.00
2018-01-20T12:11:59.505Z,760.00
2018-01-20T12:12:59.504Z,756.00
2018-01-20T12:13:59.513Z,736.00
2018-01-20T12:14:59.511Z,708.00
2018-01-20T12:15:59.542Z,672.00
2018-01-20T12:16:59.527Z,624.00
2018-01-20T12:17:59.575Z,584.00
2018-01-20T12:18:59.536Z,552.00
2018-01-20T12:19:59.537Z,524.00
2018-01-20T12:20:59.549Z,504.00
2018-01-20T12:21:59.542Z,488.00
2018-01-20T12:22:59.552Z,468.00
2018-01-20T12:23:59.555Z,460.00
2018-01-20T12:24:59.560Z,460.00
2018-01-20T12:26:00.563Z,468.00
2018-01-20T12:27:00.566Z,464.00
2018-01-20T12:27:59.565Z,472.00
2018-01-20T12:28:59.580Z,480.00
2018-01-20T12:29:59.571Z,492.00
2018-01-20T12:30:59.576Z,516.00
2018-01-20T12:31:59.588Z,528.00
2018-01-20T12:32:59.588Z,520.00
2018-01-20T12:33:59.603Z,500.00
2018-01-20T12:34:59.594Z,500.00
2018-01-20T12:35:59.604Z,496.00
2018-01-20T12:36:59.605Z,492.00
2018-01-20T12:37:59.611Z,492.00
2018-01-20T12:38:59.620Z,504.00
2018-01-20T12:39:59.621Z,516.00
2018-01-20T12:41:00.620Z,520.00
2018-01-20T12:41:59.616Z,512.00
2018-01-20T12:42:59.624Z,512.00
2018-01-20T12:43:59.635Z,500.00
2018-01-20T12:44:59.626Z,496.00
2018-01-20T12:45:59.635Z,504.00
2018-01-20T12:46:59.636Z,524.00
2018-01-20T12:47:59.637Z,540.00
2018-01-20T12:48:59.645Z,540.00
2018-01-20T12:49:59.646Z,532.00
2018-01-20T12:50:59.649Z,516.00
2018-01-20T12:51:59.677Z,500.00
2018-01-20T12:52:59.657Z,484.00
2018-01-20T12:53:59.658Z,476.00
2018-01-20T12:54:59.658Z,472.00